Time;durP1;ratioP1;P1;durP2;ratioP2;P2;SDS_P1;SDS_P2;PMS_P1;PMS_P2;Temp;Humidity;BMP_temperature;BMP_pressure;BME280_temperature;BME280_humidity;BME280_pressure;Samples;Min_cycle;Max_cycle;Signal;HPM_P1;HPM_P2
2024/03/08 00:00:26;;;;;;;32.28;14.48;;;2.10;99.90;;;;;;4932582;29;20130;-63
2024/03/08 00:02:53;;;;;;;26.23;15.68;;;2.10;99.90;;;;;;4937192;29;20043;-64
2024/03/08 00:05:21;;;;;;;30.85;15.90;;;2.10;99.90;;;;;;4932572;29;20051;-64
2024/03/08 00:07:48;;;;;;;25.38;14.00;;;2.10;99.90;;;;;;4938184;29;20062;-64
2024/03/08 00:10:15;;;;;;;29.42;15.35;;;2.10;99.90;;;;;;4933890;29;20039;-64
2024/03/08 00:12:43;;;;;;;30.67;15.65;;;2.10;99.90;;;;;;4933623;29;20094;-64
2024/03/08 00:15:14;;;;;;;26.08;14.98;;;2.10;99.90;;;;;;4929152;29;20054;-64
2024/03/08 00:17:43;;;;;;;29.85;16.98;;;2.00;99.90;;;;;;4935495;29;20440;-64
2024/03/08 00:20:10;;;;;;;31.92;15.77;;;2.00;99.90;;;;;;4934670;29;20555;-64
2024/03/08 00:22:38;;;;;;;28.83;13.57;;;2.00;99.90;;;;;;4935875;23;20056;-64
2024/03/08 00:25:09;;;;;;;31.90;15.73;;;2.00;99.90;;;;;;4895288;29;20067;-65
2024/03/08 00:27:39;;;;;;;31.30;15.43;;;1.90;99.90;;;;;;4897409;29;20513;-64
2024/03/08 00:30:14;;;;;;;32.40;16.58;;;1.90;99.90;;;;;;4904743;29;20119;-65
2024/03/08 00:32:43;;;;;;;28.40;15.48;;;1.80;99.90;;;;;;4916373;29;20074;-65
2024/03/08 00:35:11;;;;;;;29.42;15.90;;;1.80;99.90;;;;;;4922122;29;20412;-65
2024/03/08 00:37:38;;;;;;;30.67;15.25;;;1.80;99.90;;;;;;4915959;29;20059;-65
2024/03/08 00:40:06;;;;;;;30.77;15.90;;;1.80;99.90;;;;;;4917924;29;20048;-65
2024/03/08 00:42:34;;;;;;;31.92;15.73;;;1.80;99.90;;;;;;4915241;29;20087;-65
2024/03/08 00:45:01;;;;;;;31.27;15.75;;;1.80;99.90;;;;;;4922739;29;20534;-65
2024/03/08 00:47:28;;;;;;;28.20;15.65;;;1.80;99.90;;;;;;4916839;29;20043;-65
2024/03/08 00:49:56;;;;;;;29.42;15.52;;;1.80;99.90;;;;;;4912666;29;20108;-65
2024/03/08 00:52:26;;;;;;;28.98;13.15;;;1.70;99.90;;;;;;4917309;29;20487;-65
2024/03/08 00:54:53;;;;;;;30.65;14.93;;;1.70;99.90;;;;;;4917484;29;20051;-65
2024/03/08 00:57:21;;;;;;;28.52;14.00;;;1.70;99.90;;;;;;4916712;29;20256;-65
2024/03/08 00:59:48;;;;;;;27.15;14.50;;;1.60;99.90;;;;;;4914051;29;20465;-65
2024/03/08 01:02:16;;;;;;;30.33;15.70;;;1.60;99.90;;;;;;4904291;29;20512;-65
2024/03/08 01:04:43;;;;;;;30.58;15.65;;;1.50;99.90;;;;;;4911069;29;20056;-65
2024/03/08 01:07:10;;;;;;;30.13;15.73;;;1.50;99.90;;;;;;4914241;29;20044;-65
2024/03/08 01:09:37;;;;;;;31.02;15.50;;;1.50;99.90;;;;;;4916166;29;20048;-65
2024/03/08 01:12:04;;;;;;;29.73;16.17;;;1.50;99.90;;;;;;4919877;29;20044;-64
2024/03/08 01:14:31;;;;;;;37.40;17.25;;;1.50;99.90;;;;;;4919193;29;20468;-65
2024/03/08 01:16:59;;;;;;;32.78;15.77;;;1.50;99.90;;;;;;4920629;29;20416;-65
2024/03/08 01:19:28;;;;;;;35.33;16.98;;;1.50;99.90;;;;;;4918900;29;21355;-64
2024/03/08 01:22:09;;;;;;;30.83;17.02;;;1.50;99.90;;;;;;4917999;29;20493;-64
2024/03/08 01:24:37;;;;;;;33.72;17.77;;;1.50;99.90;;;;;;4911736;29;20087;-64
2024/03/08 01:27:03;;;;;;;34.63;16.65;;;1.40;99.90;;;;;;4923368;29;20044;-65
2024/03/08 01:29:30;;;;;;;31.67;15.45;;;1.50;99.90;;;;;;4913132;29;20078;-65
2024/03/08 01:31:57;;;;;;;29.13;15.85;;;1.40;99.90;;;;;;4919921;29;20056;-65
2024/03/08 01:34:23;;;;;;;36.42;16.63;;;1.40;99.90;;;;;;4921062;29;20048;-64
2024/03/08 01:36:50;;;;;;;31.70;16.55;;;1.30;99.90;;;;;;4919680;29;20051;-65
2024/03/08 01:39:27;;;;;;;34.88;17.42;;;1.40;99.90;;;;;;4917731;29;20059;-65
2024/03/08 01:42:01;;;;;;;34.95;17.15;;;1.30;99.90;;;;;;4915477;29;20905;-64
2024/03/08 01:44:34;;;;;;;34.55;17.73;;;1.30;99.90;;;;;;4916329;29;20060;-64
2024/03/08 01:47:01;;;;;;;37.25;18.50;;;1.30;99.90;;;;;;4917405;29;20056;-65
2024/03/08 01:49:28;;;;;;;37.88;17.52;;;1.30;99.90;;;;;;4919888;29;20106;-65
2024/03/08 01:51:56;;;;;;;34.22;17.50;;;1.30;99.90;;;;;;4915143;29;20059;-64
2024/03/08 01:54:24;;;;;;;34.83;18.52;;;1.30;99.90;;;;;;4918253;29;20134;-65
2024/03/08 01:56:53;;;;;;;40.03;18.83;;;1.30;99.90;;;;;;4916592;29;20055;-65
2024/03/08 01:59:20;;;;;;;36.08;17.73;;;1.30;99.90;;;;;;4917430;29;20122;-64
2024/03/08 02:01:47;;;;;;;40.40;19.25;;;1.30;99.90;;;;;;4921022;29;20076;-65
2024/03/08 02:04:14;;;;;;;35.13;18.42;;;1.30;99.90;;;;;;4915323;29;20055;-65
2024/03/08 02:06:41;;;;;;;37.42;18.58;;;1.30;99.90;;;;;;4915150;29;20127;-65
2024/03/08 02:09:08;;;;;;;36.90;17.75;;;1.20;99.90;;;;;;4903581;29;20056;-65
2024/03/08 02:11:36;;;;;;;36.50;17.70;;;1.20;99.90;;;;;;4915541;29;20084;-64
2024/03/08 02:14:03;;;;;;;38.13;18.00;;;1.20;99.90;;;;;;4917007;29;20120;-65
2024/03/08 02:16:30;;;;;;;44.00;18.98;;;1.20;99.90;;;;;;4916948;29;20490;-64
2024/03/08 02:18:57;;;;;;;37.58;18.10;;;1.20;99.90;;;;;;4920706;29;20116;-65
2024/03/08 02:21:25;;;;;;;40.75;19.27;;;1.20;99.90;;;;;;4916352;29;20068;-64
2024/03/08 02:23:52;;;;;;;39.70;18.75;;;1.20;99.90;;;;;;4916490;29;20051;-64
2024/03/08 02:26:19;;;;;;;39.15;17.80;;;1.20;99.90;;;;;;4917358;29;20402;-64
2024/03/08 02:28:46;;;;;;;40.13;18.00;;;1.20;99.90;;;;;;4920384;29;20139;-64
2024/03/08 02:31:13;;;;;;;36.60;18.02;;;1.10;99.90;;;;;;4917387;29;20556;-65
2024/03/08 02:33:39;;;;;;;41.67;18.38;;;1.20;99.90;;;;;;4915422;29;20116;-64
2024/03/08 02:36:07;;;;;;;36.58;18.50;;;1.20;99.90;;;;;;4919550;29;20051;-64
2024/03/08 02:38:33;;;;;;;43.58;19.52;;;1.20;99.90;;;;;;4919524;29;20377;-64
2024/03/08 02:41:00;;;;;;;43.67;19.77;;;1.20;99.90;;;;;;4919355;29;20052;-65
2024/03/08 02:43:27;;;;;;;39.25;19.05;;;1.20;99.90;;;;;;4919103;29;20101;-64
2024/03/08 02:45:54;;;;;;;44.70;21.73;;;1.20;99.90;;;;;;4913922;29;20077;-65
2024/03/08 02:48:21;;;;;;;46.05;20.63;;;1.20;99.90;;;;;;4915169;29;20052;-65
2024/03/08 02:50:50;;;;;;;45.75;20.85;;;1.20;99.90;;;;;;4901249;29;20513;-65
2024/03/08 02:53:18;;;;;;;45.90;21.33;;;1.20;99.90;;;;;;4918260;29;20098;-64
2024/03/08 02:55:46;;;;;;;42.47;21.40;;;1.20;99.90;;;;;;4916454;29;20058;-65
2024/03/08 02:58:14;;;;;;;50.63;22.35;;;1.10;99.90;;;;;;4914265;29;20418;-64
2024/03/08 03:00:41;;;;;;;51.45;22.98;;;1.00;99.90;;;;;;4917307;29;20079;-64
2024/03/08 03:03:08;;;;;;;53.08;22.48;;;1.00;99.90;;;;;;4915064;29;20052;-64
2024/03/08 03:05:35;;;;;;;51.30;21.83;;;1.00;99.90;;;;;;4916320;29;20495;-65
2024/03/08 03:08:08;;;;;;;44.70;21.50;;;1.00;99.90;;;;;;4915806;29;20054;-65
2024/03/08 03:10:36;;;;;;;51.58;22.92;;;1.00;99.90;;;;;;4917243;29;20074;-65
2024/03/08 03:13:04;;;;;;;43.10;21.20;;;1.00;99.90;;;;;;4911065;29;20493;-64
2024/03/08 03:15:33;;;;;;;49.38;21.65;;;1.00;99.90;;;;;;4913860;29;20059;-64
2024/03/08 03:18:00;;;;;;;42.53;21.48;;;1.00;99.90;;;;;;4903087;29;20419;-64
2024/03/08 03:20:32;;;;;;;40.65;19.70;;;1.00;99.90;;;;;;4918578;29;20044;-64
2024/03/08 03:23:03;;;;;;;40.65;19.65;;;1.00;99.90;;;;;;4917010;29;20080;-64
2024/03/08 03:25:34;;;;;;;43.88;19.83;;;1.00;99.90;;;;;;4914486;29;20051;-65
2024/03/08 03:28:02;;;;;;;47.47;21.15;;;1.00;99.90;;;;;;4917227;29;20060;-64
2024/03/08 03:30:32;;;;;;;42.13;20.80;;;0.90;99.90;;;;;;4915613;29;20056;-65
2024/03/08 03:33:00;;;;;;;37.90;18.92;;;0.90;99.90;;;;;;4899585;29;20075;-65
2024/03/08 03:35:29;;;;;;;42.72;20.17;;;0.90;99.90;;;;;;4916423;29;20080;-65
2024/03/08 03:38:06;;;;;;;44.30;21.30;;;0.80;99.90;;;;;;4919674;29;20421;-65
2024/03/08 03:40:34;;;;;;;37.33;19.60;;;0.80;99.90;;;;;;4915966;29;20135;-65
2024/03/08 03:43:02;;;;;;;43.95;19.60;;;0.70;99.90;;;;;;4923214;29;20108;-64
2024/03/08 03:45:33;;;;;;;37.70;19.08;;;0.80;99.90;;;;;;4915473;29;20052;-65
2024/03/08 03:48:04;;;;;;;41.60;19.65;;;0.80;99.90;;;;;;4916098;29;20568;-65
2024/03/08 03:50:34;;;;;;;43.08;19.63;;;0.80;99.90;;;;;;4916371;29;20111;-65
2024/03/08 03:53:02;;;;;;;42.80;20.48;;;0.70;99.90;;;;;;4919909;29;20051;-65
2024/03/08 03:55:29;;;;;;;45.28;20.55;;;0.80;99.90;;;;;;4903369;29;20495;-65
2024/03/08 03:57:58;;;;;;;49.15;21.27;;;0.80;99.90;;;;;;4918682;29;20058;-65
2024/03/08 04:01:09;;;;;;;45.38;21.50;;;0.80;99.90;;;;;;4918158;29;20047;-65
2024/03/08 04:03:36;;;;;;;48.33;22.45;;;0.70;99.90;;;;;;4914270;29;20680;-65
2024/03/08 04:06:06;;;;;;;51.50;21.58;;;0.70;99.90;;;;;;4922619;29;20075;-65
2024/03/08 04:08:34;;;;;;;54.50;23.45;;;0.80;99.90;;;;;;4917840;29;20055;-65
2024/03/08 04:11:01;;;;;;;45.00;21.40;;;0.80;99.90;;;;;;4921291;29;20044;-65
2024/03/08 04:13:27;;;;;;;46.90;20.25;;;0.80;99.90;;;;;;4920187;29;20047;-65
2024/03/08 04:15:54;;;;;;;43.38;19.33;;;0.80;99.90;;;;;;4912708;29;20044;-65
2024/03/08 04:18:21;;;;;;;44.28;19.60;;;0.70;99.90;;;;;;4912243;29;20162;-65
2024/03/08 04:20:48;;;;;;;41.67;20.45;;;0.70;99.90;;;;;;4919910;29;20465;-64
2024/03/08 04:23:16;;;;;;;41.15;20.13;;;0.70;99.90;;;;;;4916963;29;20047;-64
2024/03/08 04:25:43;;;;;;;46.00;19.73;;;0.70;99.90;;;;;;4915768;29;20430;-65
2024/03/08 04:28:13;;;;;;;47.58;20.20;;;0.70;99.90;;;;;;4916010;29;20112;-65
2024/03/08 04:30:40;;;;;;;46.13;20.75;;;0.70;99.90;;;;;;4920750;29;20040;-65
2024/03/08 04:33:07;;;;;;;47.10;21.38;;;0.70;99.90;;;;;;4919233;29;20044;-65
2024/03/08 04:35:35;;;;;;;45.78;21.27;;;0.60;99.90;;;;;;4919177;29;20099;-65
2024/03/08 04:38:05;;;;;;;45.40;21.02;;;0.70;99.90;;;;;;4920081;29;20507;-65
2024/03/08 04:40:31;;;;;;;44.58;20.33;;;0.60;99.90;;;;;;4913508;29;20043;-65
2024/03/08 04:42:59;;;;;;;43.22;20.38;;;0.60;99.90;;;;;;4924267;29;20485;-65
2024/03/08 04:45:26;;;;;;;41.58;18.55;;;0.60;99.90;;;;;;4917183;29;20552;-65
2024/03/08 04:47:52;;;;;;;43.50;19.60;;;0.60;99.90;;;;;;4919290;29;20044;-65
2024/03/08 04:50:19;;;;;;;40.83;18.50;;;0.60;99.90;;;;;;4922553;29;20107;-65
2024/03/08 04:52:47;;;;;;;44.45;20.13;;;0.60;99.90;;;;;;4914025;29;20093;-65
2024/03/08 04:55:14;;;;;;;48.58;21.85;;;0.60;99.90;;;;;;4920360;29;20568;-65
2024/03/08 04:57:41;;;;;;;42.47;19.45;;;0.60;99.90;;;;;;4920497;29;20138;-65
2024/03/08 05:00:12;;;;;;;48.50;21.40;;;0.60;99.90;;;;;;4921858;29;20040;-65
2024/03/08 05:02:38;;;;;;;45.65;20.63;;;0.50;99.90;;;;;;4924522;29;20050;-65
2024/03/08 05:05:06;;;;;;;49.70;21.58;;;0.50;99.90;;;;;;4905692;29;20492;-65
2024/03/08 05:07:33;;;;;;;45.45;20.15;;;0.50;99.90;;;;;;4921845;29;20274;-65
2024/03/08 05:10:11;;;;;;;45.60;20.63;;;0.50;99.90;;;;;;4922180;29;20055;-65
2024/03/08 05:12:50;;;;;;;42.17;18.55;;;0.50;99.90;;;;;;4913483;29;20076;-65
2024/03/08 05:16:01;;;;;;;36.67;17.05;;;0.50;99.90;;;;;;4924337;29;20055;-65
2024/03/08 05:18:28;;;;;;;44.50;19.17;;;0.50;99.90;;;;;;4922823;29;20813;-64
2024/03/08 05:20:56;;;;;;;42.10;20.33;;;0.50;99.90;;;;;;4919340;29;20047;-65
2024/03/08 05:23:23;;;;;;;42.33;20.10;;;0.50;99.90;;;;;;4920472;29;20070;-65
2024/03/08 05:25:50;;;;;;;50.72;22.10;;;0.40;99.90;;;;;;4923889;29;20608;-65
2024/03/08 05:28:17;;;;;;;55.05;23.15;;;0.50;99.90;;;;;;4919884;29;20119;-65
2024/03/08 05:30:44;;;;;;;46.85;21.35;;;0.50;99.90;;;;;;4921041;29;20056;-65
2024/03/08 05:33:11;;;;;;;43.95;21.45;;;0.50;99.90;;;;;;4925373;29;20083;-65
2024/03/08 05:35:38;;;;;;;46.47;20.73;;;0.50;99.90;;;;;;4918992;29;20059;-65
2024/03/08 05:38:04;;;;;;;44.75;20.25;;;0.40;99.90;;;;;;4915848;29;20091;-65
2024/03/08 05:40:31;;;;;;;47.97;20.40;;;0.40;99.90;;;;;;4919023;29;20051;-65
2024/03/08 05:43:02;;;;;;;45.75;19.58;;;0.40;99.90;;;;;;4921862;29;20074;-65
2024/03/08 05:45:28;;;;;;;48.08;20.17;;;0.40;99.90;;;;;;4916737;29;20111;-65
2024/03/08 05:47:55;;;;;;;39.88;18.67;;;0.50;99.90;;;;;;4921514;29;20048;-65
2024/03/08 05:50:22;;;;;;;44.92;19.42;;;0.50;99.90;;;;;;4919219;29;20445;-65
2024/03/08 05:53:03;;;;;;;50.92;19.48;;;0.40;99.90;;;;;;4902923;29;20060;-64
2024/03/08 05:55:30;;;;;;;43.13;21.05;;;0.40;99.90;;;;;;4910061;29;20155;-64
2024/03/08 05:57:57;;;;;;;41.85;18.17;;;0.40;99.90;;;;;;4916000;29;20051;-64
2024/03/08 06:00:24;;;;;;;40.42;19.92;;;0.40;99.90;;;;;;4922951;29;20052;-64
2024/03/08 06:02:51;;;;;;;44.97;18.92;;;0.40;99.90;;;;;;4915883;29;20040;-64
2024/03/08 06:05:18;;;;;;;44.47;18.85;;;0.40;99.90;;;;;;4916886;29;20075;-65
2024/03/08 06:07:45;;;;;;;46.67;21.75;;;0.40;99.90;;;;;;4918345;29;20103;-64
2024/03/08 06:10:13;;;;;;;43.50;20.23;;;0.40;99.90;;;;;;4921682;29;20576;-65
2024/03/08 06:12:41;;;;;;;44.53;21.58;;;0.50;99.90;;;;;;4919368;29;20082;-64
2024/03/08 06:15:09;;;;;;;51.25;23.42;;;0.50;99.90;;;;;;4921974;29;20056;-64
2024/03/08 06:17:36;;;;;;;48.70;21.90;;;0.50;99.90;;;;;;4923938;29;20052;-64
2024/03/08 06:20:10;;;;;;;48.58;22.25;;;0.50;99.90;;;;;;4915503;29;20390;-64
2024/03/08 06:22:40;;;;;;;49.92;22.20;;;0.60;99.90;;;;;;4913331;29;20521;-64
2024/03/08 06:25:13;;;;;;;47.45;20.60;;;0.60;99.90;;;;;;4917828;29;20127;-65
2024/03/08 06:27:42;;;;;;;48.58;21.70;;;0.60;99.90;;;;;;4921458;29;20062;-65
2024/03/08 06:30:12;;;;;;;48.63;21.60;;;0.70;99.90;;;;;;4927406;29;20063;-65
2024/03/08 06:32:39;;;;;;;48.72;21.13;;;0.80;99.90;;;;;;4916720;29;20428;-65
2024/03/08 06:35:07;;;;;;;49.60;21.48;;;0.80;99.90;;;;;;4917373;29;20055;-65
2024/03/08 06:37:34;;;;;;;47.20;22.40;;;0.80;99.90;;;;;;4919258;29;20059;-65
2024/03/08 06:40:10;;;;;;;52.13;23.00;;;0.90;99.90;;;;;;4920809;29;20048;-65
2024/03/08 06:42:37;;;;;;;54.20;23.23;;;1.00;99.90;;;;;;4924592;29;20048;-65
2024/03/08 06:45:08;;;;;;;52.05;22.35;;;1.10;99.90;;;;;;4924369;29;20465;-65
2024/03/08 06:47:36;;;;;;;52.38;23.85;;;1.20;99.90;;;;;;4921703;29;20242;-65
2024/03/08 06:50:04;;;;;;;60.15;25.20;;;1.20;99.90;;;;;;4922706;29;20548;-65
2024/03/08 06:52:31;;;;;;;53.20;22.92;;;1.30;99.90;;;;;;4919794;29;20075;-64
2024/03/08 06:54:57;;;;;;;52.42;22.02;;;1.40;99.90;;;;;;4923246;29;20524;-63
2024/03/08 06:57:24;;;;;;;45.53;21.58;;;1.50;99.90;;;;;;4922422;29;20090;-65
2024/03/08 06:59:52;;;;;;;46.00;21.45;;;1.50;99.90;;;;;;4922794;29;20107;-65
2024/03/08 07:02:19;;;;;;;45.42;22.30;;;1.50;99.90;;;;;;4919455;29;20520;-62
2024/03/08 07:04:46;;;;;;;51.78;24.35;;;1.60;99.90;;;;;;4918241;29;20043;-64
2024/03/08 07:07:12;;;;;;;58.35;26.02;;;1.60;99.90;;;;;;4921551;29;20044;-63
2024/03/08 07:09:40;;;;;;;56.75;26.33;;;1.70;99.90;;;;;;4927774;29;20047;-62
2024/03/08 07:12:07;;;;;;;56.72;26.35;;;1.80;99.90;;;;;;4915392;29;20459;-63
2024/03/08 07:14:34;;;;;;;55.88;26.88;;;1.80;99.90;;;;;;4926433;29;20067;-64
2024/03/08 07:17:01;;;;;;;66.13;30.55;;;1.90;99.90;;;;;;4923535;29;20047;-63
2024/03/08 07:19:30;;;;;;;63.20;30.23;;;2.00;99.90;;;;;;4923865;29;20698;-65
2024/03/08 07:21:57;;;;;;;66.35;31.48;;;2.00;99.90;;;;;;4923608;29;20331;-65
2024/03/08 07:27:09;;;;;;;57.83;26.73;;;2.20;99.90;;;;;;4915575;29;20687;-63
2024/03/08 07:29:36;;;;;;;62.53;29.30;;;2.20;99.90;;;;;;4923049;29;20058;-64
2024/03/08 07:32:20;;;;;;;63.17;28.58;;;2.30;99.90;;;;;;4916992;29;20062;-63
2024/03/08 07:34:50;;;;;;;63.05;28.52;;;2.30;99.90;;;;;;4919849;29;20130;-62
2024/03/08 07:37:19;;;;;;;63.63;28.25;;;2.40;99.90;;;;;;4919162;29;20059;-63
2024/03/08 07:39:45;;;;;;;67.45;28.25;;;2.50;99.90;;;;;;4920442;29;20472;-62
2024/03/08 07:42:12;;;;;;;58.88;27.90;;;2.50;99.90;;;;;;4921898;29;20082;-61
2024/03/08 07:44:39;;;;;;;60.80;29.05;;;2.60;99.90;;;;;;4925753;29;20043;-63
2024/03/08 07:47:09;;;;;;;57.72;28.30;;;2.70;99.90;;;;;;4924941;29;20139;-63
2024/03/08 07:49:37;;;;;;;52.90;27.25;;;2.70;99.90;;;;;;4922573;29;20058;-61
2024/03/08 07:52:05;;;;;;;57.40;27.77;;;2.80;99.90;;;;;;4920767;29;20051;-62
2024/03/08 07:54:32;;;;;;;57.67;26.85;;;2.90;99.90;;;;;;4919096;29;20087;-62
2024/03/08 07:56:59;;;;;;;58.10;26.73;;;2.90;99.90;;;;;;4916869;29;20075;-62
2024/03/08 07:59:26;;;;;;;59.40;27.70;;;3.00;99.90;;;;;;4920329;29;20044;-63
2024/03/08 08:01:52;;;;;;;54.50;27.77;;;3.10;99.90;;;;;;4920862;29;20068;-61
2024/03/08 08:04:24;;;;;;;62.53;30.02;;;3.10;99.90;;;;;;4919644;29;20131;-61
2024/03/08 08:06:51;;;;;;;64.05;31.02;;;3.20;99.90;;;;;;4916945;29;20071;-62
2024/03/08 08:09:28;;;;;;;59.45;30.50;;;3.20;99.90;;;;;;4917957;29;20055;-63
2024/03/08 08:11:55;;;;;;;63.25;30.80;;;3.30;99.90;;;;;;4915329;29;20059;-63
2024/03/08 08:14:21;;;;;;;62.42;31.30;;;3.40;99.90;;;;;;4920810;29;20517;-64
2024/03/08 08:16:51;;;;;;;63.53;30.70;;;3.50;99.90;;;;;;4918604;29;20055;-63
2024/03/08 08:19:19;;;;;;;64.10;31.52;;;3.50;99.90;;;;;;4916294;29;20056;-61
2024/03/08 08:21:45;;;;;;;57.85;29.13;;;3.60;99.90;;;;;;4915459;29;20048;-60
2024/03/08 08:24:12;;;;;;;58.90;29.15;;;3.60;99.90;;;;;;4920014;29;20040;-64
2024/03/08 08:26:39;;;;;;;58.95;30.02;;;3.70;99.90;;;;;;4923410;29;20048;-63
2024/03/08 08:29:07;;;;;;;57.05;29.15;;;3.80;99.90;;;;;;4926599;29;20048;-64
2024/03/08 08:31:34;;;;;;;57.42;28.85;;;3.80;99.90;;;;;;4920788;29;20123;-64
2024/03/08 08:34:00;;;;;;;62.33;31.10;;;3.90;99.90;;;;;;4921387;29;20100;-65
2024/03/08 08:36:29;;;;;;;57.28;29.40;;;3.90;99.90;;;;;;4921937;29;20056;-65
2024/03/08 08:38:58;;;;;;;69.78;32.55;;;4.00;99.90;;;;;;4919428;29;20043;-62
2024/03/08 08:41:25;;;;;;;61.38;31.65;;;4.00;99.90;;;;;;4922897;29;20112;-62
2024/03/08 08:43:52;;;;;;;66.10;33.13;;;4.10;99.90;;;;;;4921056;29;20536;-62
2024/03/08 08:46:35;;;;;;;59.35;30.77;;;4.10;99.90;;;;;;4923396;29;20295;-62
2024/03/08 08:49:20;;;;;;;57.28;31.48;;;4.20;99.90;;;;;;4920700;29;20058;-62
2024/03/08 08:51:50;;;;;;;59.83;32.03;;;4.30;99.90;;;;;;4917817;29;20707;-62
2024/03/08 08:54:20;;;;;;;67.63;32.63;;;4.30;99.90;;;;;;4924910;29;20149;-61
2024/03/08 08:56:48;;;;;;;57.50;30.42;;;4.30;99.90;;;;;;4920430;29;20040;-61
2024/03/08 08:59:15;;;;;;;62.60;30.80;;;4.30;99.90;;;;;;4924086;29;20059;-62
2024/03/08 09:01:49;;;;;;;62.80;30.63;;;4.40;99.90;;;;;;4915966;29;20531;-61
2024/03/08 09:04:16;;;;;;;62.47;31.50;;;4.50;99.90;;;;;;4903826;29;20048;-61
2024/03/08 09:06:44;;;;;;;63.53;33.78;;;4.50;99.90;;;;;;4916629;29;20048;-61
2024/03/08 09:09:13;;;;;;;64.82;32.70;;;4.50;99.90;;;;;;4921938;29;20142;-62
2024/03/08 09:11:42;;;;;;;61.05;32.15;;;4.60;99.90;;;;;;4917625;29;20111;-61
2024/03/08 09:14:11;;;;;;;62.20;34.33;;;4.60;99.90;;;;;;4918253;29;20079;-60
2024/03/08 09:16:38;;;;;;;63.22;34.58;;;4.70;99.90;;;;;;4921346;29;20517;-61
2024/03/08 09:19:06;;;;;;;59.75;34.13;;;4.80;99.90;;;;;;4916578;29;20060;-61
2024/03/08 09:21:34;;;;;;;60.50;34.05;;;4.80;99.90;;;;;;4913546;29;20115;-60
2024/03/08 09:24:01;;;;;;;57.20;33.40;;;4.90;99.90;;;;;;4917613;29;20073;-59
2024/03/08 09:26:28;;;;;;;62.47;34.65;;;4.90;99.90;;;;;;4917261;29;20075;-56
2024/03/08 09:28:55;;;;;;;64.93;35.83;;;5.00;99.90;;;;;;4921267;29;20044;-61
2024/03/08 09:31:22;;;;;;;60.78;34.10;;;5.00;99.90;;;;;;4922766;29;20182;-61
2024/03/08 09:33:50;;;;;;;61.15;33.70;;;5.10;99.90;;;;;;4924838;29;20485;-61
2024/03/08 09:36:17;;;;;;;60.25;34.28;;;5.10;99.90;;;;;;4922906;29;20453;-60
2024/03/08 09:38:44;;;;;;;61.60;33.80;;;5.20;99.90;;;;;;4919457;29;20087;-61
2024/03/08 09:41:12;;;;;;;56.67;32.80;;;5.20;99.90;;;;;;4926826;29;20508;-61
2024/03/08 09:43:39;;;;;;;59.22;31.15;;;5.30;99.90;;;;;;4919266;29;20052;-61
2024/03/08 09:46:07;;;;;;;57.67;32.78;;;5.30;99.90;;;;;;4920683;29;20081;-61
2024/03/08 09:48:34;;;;;;;59.22;32.38;;;5.40;99.90;;;;;;4915829;29;20124;-61
2024/03/08 09:51:02;;;;;;;62.17;32.90;;;5.40;99.90;;;;;;4918349;29;20083;-62
2024/03/08 09:53:29;;;;;;;54.95;31.20;;;5.40;99.90;;;;;;4918161;29;20489;-61
2024/03/08 09:55:56;;;;;;;51.83;29.40;;;5.40;99.90;;;;;;4919005;29;20056;-61
2024/03/08 10:01:04;;;;;;;51.88;28.70;;;5.60;99.90;;;;;;4914205;29;20135;-61
2024/03/08 10:03:32;;;;;;;56.90;29.65;;;5.60;99.90;;;;;;4921482;29;20609;-62
2024/03/08 10:06:00;;;;;;;53.40;29.77;;;5.70;99.90;;;;;;4919320;29;20123;-61
2024/03/08 10:08:30;;;;;;;51.05;28.75;;;5.70;99.90;;;;;;4922560;29;20609;-61
2024/03/08 10:10:58;;;;;;;53.05;29.23;;;5.80;99.90;;;;;;4916405;29;20091;-60
2024/03/08 10:13:27;;;;;;;47.95;27.40;;;5.80;99.90;;;;;;4915594;29;20151;-57
2024/03/08 10:15:54;;;;;;;51.75;28.02;;;5.80;99.90;;;;;;4919804;29;20160;-60
2024/03/08 10:18:22;;;;;;;49.53;28.63;;;5.90;99.90;;;;;;4922598;29;20047;-60
2024/03/08 10:21:13;;;;;;;53.65;29.25;;;5.90;99.90;;;;;;4920284;29;20052;-61
2024/03/08 10:23:39;;;;;;;51.85;28.92;;;5.90;99.90;;;;;;4915570;29;20040;-62
2024/03/08 10:26:11;;;;;;;48.03;28.30;;;6.00;99.90;;;;;;4917523;29;20497;-59
2024/03/08 10:28:38;;;;;;;52.70;29.05;;;6.10;99.90;;;;;;4919890;29;20047;-61
2024/03/08 10:31:05;;;;;;;52.40;29.38;;;6.10;99.90;;;;;;4923603;29;20138;-61
2024/03/08 10:33:33;;;;;;;54.55;30.35;;;6.10;99.90;;;;;;4920103;29;20123;-60
2024/03/08 10:36:00;;;;;;;48.88;29.45;;;6.00;99.90;;;;;;4915065;29;20275;-61
2024/03/08 10:38:32;;;;;;;50.00;29.77;;;6.10;99.90;;;;;;4916596;29;20055;-61
2024/03/08 10:41:01;;;;;;;54.58;30.25;;;6.20;99.90;;;;;;4921757;29;20060;-61
2024/03/08 10:43:37;;;;;;;50.73;29.90;;;6.40;99.90;;;;;;4920590;29;20052;-60
2024/03/08 10:46:22;;;;;;;55.90;29.98;;;6.40;99.90;;;;;;4920613;29;20416;-60
2024/03/08 10:48:51;;;;;;;54.92;28.75;;;6.50;99.90;;;;;;4919385;29;20108;-61
2024/03/08 10:51:19;;;;;;;50.90;30.23;;;6.50;99.90;;;;;;4924625;29;20126;-61
2024/03/08 10:53:48;;;;;;;47.67;29.27;;;6.60;99.90;;;;;;4919562;29;20055;-61
2024/03/08 10:56:15;;;;;;;51.05;27.55;;;6.50;99.90;;;;;;4920785;29;20059;-60
2024/03/08 10:58:44;;;;;;;49.85;28.50;;;6.60;99.90;;;;;;4921253;29;20052;-61
2024/03/08 11:01:11;;;;;;;45.60;28.58;;;6.60;99.90;;;;;;4919511;29;20056;-60
2024/03/08 11:03:44;;;;;;;50.30;30.10;;;6.60;99.90;;;;;;4924067;29;20050;-61
2024/03/08 11:06:37;;;;;;;53.50;29.63;;;6.80;99.90;;;;;;4919785;29;20465;-61
2024/03/08 11:09:38;;;;;;;53.38;27.20;;;6.90;99.90;;;;;;4908630;29;20122;-61
2024/03/08 11:12:32;;;;;;;49.65;28.17;;;6.90;99.90;;;;;;4921601;29;20588;-60
2024/03/08 11:15:13;;;;;;;48.08;28.67;;;7.00;99.90;;;;;;4918322;29;20135;-61
2024/03/08 11:17:48;;;;;;;50.03;28.85;;;7.10;99.90;;;;;;4920643;29;20052;-61
2024/03/08 11:20:17;;;;;;;50.67;28.75;;;7.10;99.90;;;;;;4914672;29;20071;-61
2024/03/08 11:22:55;;;;;;;50.83;30.00;;;7.10;99.90;;;;;;4914776;29;20877;-61
2024/03/08 11:25:48;;;;;;;53.03;29.30;;;7.10;99.90;;;;;;4919291;29;20047;-61
2024/03/08 11:28:18;;;;;;;50.35;28.33;;;7.00;99.90;;;;;;4918655;29;20060;-60
2024/03/08 11:30:47;;;;;;;49.60;29.25;;;7.10;99.90;;;;;;4916588;29;20090;-59
2024/03/08 11:33:16;;;;;;;50.50;30.33;;;7.20;99.90;;;;;;4918208;29;20060;-61
2024/03/08 11:35:46;;;;;;;46.33;28.88;;;7.40;99.90;;;;;;4917734;29;20052;-61
2024/03/08 11:38:13;;;;;;;54.75;29.60;;;7.40;99.90;;;;;;4915691;29;20104;-61
2024/03/08 11:40:40;;;;;;;48.00;28.73;;;7.40;99.90;;;;;;4918950;29;20067;-60
2024/03/08 11:43:07;;;;;;;50.17;29.30;;;7.50;99.90;;;;;;4918693;29;20052;-61
2024/03/08 11:45:37;;;;;;;52.15;29.83;;;7.60;99.90;;;;;;4916511;29;20095;-61
2024/03/08 11:48:04;;;;;;;52.20;30.38;;;7.60;99.90;;;;;;4920440;29;20113;-61
2024/03/08 11:50:32;;;;;;;51.03;29.08;;;7.60;99.90;;;;;;4918997;29;20063;-61
2024/03/08 11:53:05;;;;;;;49.08;29.08;;;7.60;99.90;;;;;;4917320;29;20491;-60
2024/03/08 11:55:35;;;;;;;50.47;29.35;;;7.60;99.90;;;;;;4918532;29;20151;-61
2024/03/08 11:58:04;;;;;;;47.30;27.60;;;7.60;99.90;;;;;;4915343;29;20138;-60
2024/03/08 12:00:38;;;;;;;47.00;28.40;;;7.70;99.90;;;;;;4912333;29;20063;-60
2024/03/08 12:03:06;;;;;;;49.08;28.17;;;7.80;99.90;;;;;;4919634;29;20044;-59
2024/03/08 12:05:33;;;;;;;48.53;30.02;;;7.80;99.90;;;;;;4917847;29;20073;-61
2024/03/08 12:08:06;;;;;;;48.55;29.38;;;7.90;99.90;;;;;;4920037;29;20417;-61
2024/03/08 12:10:35;;;;;;;49.55;30.30;;;7.90;99.90;;;;;;4919979;29;20059;-61
2024/03/08 12:13:03;;;;;;;52.15;28.35;;;7.90;99.90;;;;;;4916610;29;20059;-60
2024/03/08 12:15:33;;;;;;;54.70;29.40;;;8.00;99.90;;;;;;4918780;29;20138;-61
2024/03/08 12:18:00;;;;;;;45.15;28.02;;;8.10;99.90;;;;;;4917135;29;20063;-61
2024/03/08 12:20:31;;;;;;;43.53;27.27;;;8.20;99.90;;;;;;4920433;29;20047;-60
2024/03/08 12:22:59;;;;;;;45.38;27.45;;;8.30;99.90;;;;;;4914059;29;20885;-64
2024/03/08 12:25:30;;;;;;;45.28;26.27;;;8.30;99.90;;;;;;4920414;29;20110;-64
2024/03/08 12:27:57;;;;;;;45.20;27.63;;;8.30;99.90;;;;;;4919987;29;20412;-64
2024/03/08 12:30:28;;;;;;;42.28;26.67;;;8.30;99.90;;;;;;4919608;29;20052;-64
2024/03/08 12:32:58;;;;;;;43.75;25.98;;;8.30;99.90;;;;;;4917067;29;20264;-64
2024/03/08 12:35:30;;;;;;;41.42;25.02;;;8.30;99.90;;;;;;4919560;29;20469;-64
2024/03/08 12:37:59;;;;;;;41.72;24.13;;;8.30;99.90;;;;;;4916031;29;20639;-64
2024/03/08 12:40:31;;;;;;;47.22;26.77;;;8.50;99.90;;;;;;4919991;29;20469;-64
2024/03/08 12:42:59;;;;;;;39.72;24.88;;;8.40;99.90;;;;;;4916835;29;20048;-64
2024/03/08 12:45:26;;;;;;;42.08;26.58;;;8.50;99.90;;;;;;4915355;29;20507;-64
2024/03/08 12:47:55;;;;;;;44.65;27.23;;;8.60;99.90;;;;;;4919981;29;20056;-64
2024/03/08 12:50:22;;;;;;;46.70;27.77;;;8.50;99.90;;;;;;4919978;29;20048;-64